Time;durP1;ratioP1;P1;durP2;ratioP2;P2;SDS_P1;SDS_P2;PMS_P1;PMS_P2;Temp;Humidity;BMP_temperature;BMP_pressure;BME280_temperature;BME280_humidity;BME280_pressure;Samples;Min_cycle;Max_cycle;Signal;HPM_P1;HPM_P2
2022/01/05 01:54:17;;;;;;;;;;;;;;;;;;;;;
2022/01/05 01:57:22;;;;;;;;;;;;;;;;;;;;;
2022/01/05 01:59:50;;;;;;;10.27;1.30;;;;;;;10.52;50.10;99276.88;5995421;23;116781;-77
2022/01/05 02:02:24;;;;;;;9.30;1.98;;;;;;;10.52;49.81;99270.72;6004345;23;97078;-77
2022/01/05 02:05:01;;;;;;;;;;;;;;;;;;;;;
2022/01/05 02:07:28;;;;;;;8.98;1.25;;;;;;;10.62;50.07;99250.78;5995038;23;127886;-76
2022/01/05 02:10:16;;;;;;;10.95;1.60;;;;;;;10.47;49.38;99256.97;6004462;23;96603;-77
2022/01/05 02:12:51;;;;;;;8.63;1.20;;;;;;;10.58;49.88;99250.09;6003693;23;96888;-78
2022/01/05 02:15:49;;;;;;;;;;;;;;;;;;;;;
2022/01/05 02:19:01;;;;;;;6.55;1.13;;;;;;;10.56;49.96;99261.72;6001363;23;126123;-76
2022/01/05 03:01:38;;;;;;;;;;;;;;;;;;;;;
2022/01/05 03:04:26;;;;;;;;;;;;;;;10.32;50.18;99285.94;5994850;23;118189;-76
2022/01/05 03:06:54;;;;;;;6.15;1.10;;;;;;;10.39;50.16;99286.44;5955239;23;97235;-76
2022/01/05 03:09:24;;;;;;;12.18;1.15;;;;;;;10.41;49.22;99287.22;6002083;23;100718;-76
2022/01/05 03:11:56;;;;;;;11.48;1.10;;;;;;;10.55;49.70;99286.41;6003366;23;98852;-76
2022/01/05 03:14:36;;;;;;;;;;;;;;;;;;;;;
2022/01/05 03:17:05;;;;;;;9.30;1.10;;;;;;;10.46;49.78;99266.66;5999949;23;117103;-76
2022/01/05 03:19:37;;;;;;;12.50;1.38;;;;;;;10.40;49.90;99272.31;6001334;23;99267;-76
2022/01/05 03:22:06;;;;;;;8.95;1.15;;;;;;;10.26;49.32;99269.59;6002581;23;98810;-77
2022/01/05 03:24:35;;;;;;;10.77;0.90;;;;;;;10.32;49.98;99258.69;6001684;23;97185;-77
2022/01/05 03:27:06;;;;;;;12.48;1.42;;;;;;;10.40;49.54;99256.47;6001193;23;96769;-77
2022/01/05 03:29:37;;;;;;;14.25;1.40;;;;;;;10.24;50.24;99274.97;6001161;23;98975;-77
2022/01/05 03:32:15;;;;;;;7.63;1.23;;;;;;;10.09;50.19;99274.97;6002608;23;99143;-77
2022/01/05 03:34:45;;;;;;;6.10;1.17;;;;;;;9.97;50.49;99271.25;6001759;23;96705;-77
2022/01/05 03:37:22;;;;;;;;;;;;;;;;;;;;;
2022/01/05 03:39:50;;;;;;;10.45;1.15;;;;;;;9.60;50.35;99269.78;6000514;23;127255;-76
2022/01/05 03:42:21;;;;;;;9.18;1.25;;;;;;;10.04;50.55;99274.41;6001846;23;98874;-77
2022/01/05 04:21:25;;;;;;;11.00;2.00;;;;;;;10.03;49.75;99291.16;6004020;23;97189;-77
2022/01/05 04:24:01;;;;;;;11.65;1.10;;;;;;;10.25;49.20;99294.28;5997615;23;99553;-77
2022/01/05 04:26:32;;;;;;;9.05;1.60;;;;;;;10.32;48.87;99300.94;6003097;23;97420;-77
2022/01/05 04:29:11;;;;;;;;;;;;;;;;;;;;;
2022/01/05 04:31:38;;;;;;;6.20;1.10;;;;;;;10.27;49.30;99303.00;5998072;23;117326;-76
2022/01/05 06:05:11;;;;;;;16.13;1.55;;;;;;;9.40;51.25;99309.56;5940444;23;98430;-78
2022/01/05 06:08:10;;;;;;;;;;;;;;;;;;;;;
2022/01/05 06:11:18;;;;;;;;;;;;;;;;;;;;;
2022/01/05 06:14:23;;;;;;;;;;;;;;;;;;;;;
2022/01/05 06:17:40;;;;;;;;;;;;;;;;;;;;;
2022/01/05 06:23:48;;;;;;;15.88;1.95;;;;;;;9.46;50.85;99306.59;5884598;23;97309;-78
2022/01/05 06:39:33;;;;;;;13.45;1.00;;;;;;;9.10;51.32;99327.84;5931756;23;99614;-77
2022/01/05 06:42:10;;;;;;;;;;;;;;;;;;;;;
2022/01/05 06:45:00;;;;;;;12.10;1.65;;;;;;;9.11;50.70;99335.69;5972878;23;118411;-77
2022/01/05 06:47:32;;;;;;;5.50;1.23;;;;;;;9.47;50.94;99337.31;5972786;23;97230;-78
2022/01/05 06:50:17;;;;;;;;;;;;;;;;;;;;;
2022/01/05 06:53:01;;;;;;;;;;;;;;;;;;;;;
2022/01/05 06:55:49;;;;;;;11.48;1.25;;;;;;;9.31;50.62;99347.81;5965369;23;119372;-77
2022/01/05 06:58:18;;;;;;;10.82;1.42;;;;;;;9.16;50.24;99359.16;5974493;23;96716;-78
2022/01/05 08:48:47;;;;;;;5.85;1.27;;;;;;;8.65;50.07;99415.31;6015890;23;101031;-76
2022/01/05 09:46:43;;;;;;;12.27;1.92;;;;;;;9.35;45.15;99438.97;6006835;23;96991;-77
2022/01/05 09:49:45;;;;;;;;;;;;;;;;;;;;;
2022/01/05 09:55:45;;;;;;;12.07;2.22;;;;;;;10.27;43.03;99435.00;5857599;23;100080;-77
2022/01/05 09:58:16;;;;;;;8.77;2.00;;;;;;;10.60;42.40;99448.13;5986330;23;97297;-76
2022/01/05 10:00:59;;;;;;;;;;;;;;;;;;;;;
2022/01/05 10:04:10;;;;;;;15.27;1.92;;;;;;;10.52;41.72;99461.75;5992747;23;127583;-76
2022/01/05 10:14:16;;;;;;;;;;;;;;;;;;;;;
2022/01/05 10:23:15;;;;;;;;;;;;;;;10.76;41.83;99454.25;5965597;23;97591;-77
2022/01/05 10:25:44;;;;;;;13.55;1.95;;;;;;;10.50;41.78;99445.13;5886614;23;97015;-78
2022/01/05 10:28:27;;;;;;;9.68;1.90;;;;;;;10.02;42.24;99447.78;5953687;23;100403;-78
2022/01/05 10:30:57;;;;;;;12.52;1.52;;;;;;;9.87;42.60;99446.81;5997126;23;99115;-77
2022/01/05 10:33:48;;;;;;;15.52;2.17;;;;;;;10.08;42.34;99444.81;6001949;23;97228;-78
2022/01/05 10:36:16;;;;;;;8.60;1.38;;;;;;;10.02;42.21;99445.16;6002692;23;98748;-77
2022/01/05 10:39:06;;;;;;;;;;;;;;;;;;;;;
2022/01/05 10:41:38;;;;;;;14.63;1.77;;;;;;;10.31;41.72;99442.66;5996668;23;127089;-76
2022/01/05 10:44:14;;;;;;;13.73;2.67;;;;;;;10.34;41.79;99447.78;6001367;23;96758;-78
2022/01/05 11:02:32;;;;;;;10.77;1.52;;;;;;;10.37;42.03;99437.03;5879598;23;101773;-76
2022/01/05 11:11:50;;;;;;;13.93;1.50;;;;;;;10.61;40.97;99424.28;5918742;23;96960;-78
2022/01/05 11:15:05;;;;;;;;;;;;;;;;;;;;;
2022/01/05 11:21:38;;;;;;;9.85;1.50;;;;;;;10.67;40.85;99429.19;5687335;24;97916;-76
2022/01/05 11:24:36;;;;;;;12.45;2.60;;;;;;;10.66;40.49;99422.22;5884533;23;96875;-78
2022/01/05 11:57:33;;;;;;;9.93;1.73;;;;;;;10.07;41.39;99411.44;5824422;23;97881;-78
2022/01/05 12:04:01;;;;;;;9.63;2.08;;;;;;;10.74;40.40;99404.13;5964661;23;97678;-77
2022/01/05 12:06:29;;;;;;;;;;;;;;;10.98;40.10;99393.94;6006747;23;97239;-77
2022/01/05 12:08:58;;;;;;;14.07;2.28;;;;;;;11.00;39.64;99412.34;6007647;23;96813;-76
2022/01/05 12:11:30;;;;;;;12.50;2.17;;;;;;;10.69;40.06;99406.19;6004079;23;98870;-77
2022/01/05 12:13:58;;;;;;;10.27;2.10;;;;;;;10.46;40.08;99398.72;6004455;23;97874;-76
2022/01/05 12:16:26;;;;;;;11.60;2.17;;;;;;;10.14;40.87;99410.16;6003809;23;96947;-76
2022/01/05 12:19:13;;;;;;;8.48;1.73;;;;;;;10.15;41.46;99409.25;6003633;23;97052;-77
2022/01/05 12:21:44;;;;;;;8.40;1.50;;;;;;;10.18;41.32;99409.09;6003748;23;100660;-77
2022/01/05 12:40:34;;;;;;;;;;;;;;;9.96;41.80;99412.88;5750018;23;96874;-78
2022/01/05 12:46:53;;;;;;;10.13;1.73;;;;;;;10.21;41.67;99406.28;5797892;24;101912;-76
2022/01/05 13:03:33;;;;;;;12.07;1.73;;;;;;;10.01;41.39;99402.06;5839463;23;100363;-77
2022/01/05 13:06:13;;;;;;;10.98;2.00;;;;;;;10.26;41.48;99406.88;5940501;23;97351;-76
2022/01/05 13:08:46;;;;;;;14.10;2.05;;;;;;;10.10;41.76;99400.72;5972723;23;97066;-77
2022/01/05 13:11:13;;;;;;;14.43;2.30;;;;;;;10.08;41.80;99407.88;6001333;23;98118;-76
2022/01/05 13:13:42;;;;;;;14.27;1.60;;;;;;;10.03;42.11;99399.34;6002836;23;98900;-76
2022/01/05 13:16:33;;;;;;;11.32;2.50;;;;;;;10.13;42.22;99400.53;6002408;23;97101;-78
2022/01/05 13:19:24;;;;;;;;;;;;;;;;;;;;;
2022/01/05 13:22:10;;;;;;;;;;;;;;;;;;;;;
2022/01/05 13:25:16;;;;;;;;;;;;;;;;;;;;;
2022/01/05 13:28:04;;;;;;;;;;;;;;;;;;;;;
2022/01/05 13:34:30;;;;;;;7.78;1.77;;;;;;;10.07;42.68;99399.09;6005960;23;99916;-77
2022/01/05 13:40:36;;;;;;;;;;;;;;;;;;;;;
2022/01/05 13:46:23;;;;;;;10.35;3.03;;;;;;;9.85;43.91;99388.00;5961227;23;98467;-78
2022/01/05 13:49:14;;;;;;;12.35;1.83;;;;;;;9.89;43.56;99398.31;6001227;23;98748;-78
2022/01/05 13:51:41;;;;;;;8.60;2.20;;;;;;;9.93;43.94;99384.00;5995864;23;96961;-77
2022/01/05 13:54:27;;;;;;;;;;;;;;;;;;;;;
2022/01/05 14:00:18;;;;;;;7.95;1.80;;;;;;;9.47;45.35;99395.31;5971975;23;98981;-78
2022/01/05 14:02:47;;;;;;;10.75;1.70;;;;;;;9.37;46.37;99392.31;6018678;23;96524;-77
2022/01/05 14:05:24;;;;;;;11.65;2.17;;;;;;;9.19;45.84;99382.69;6001729;23;96847;-77
2022/01/05 14:11:45;;;;;;;7.03;1.67;;;;;;;9.41;45.92;99393.00;6002937;23;96900;-78
2022/01/05 14:14:13;;;;;;;15.73;2.40;;;;;;;9.41;46.48;99406.19;5999241;23;96652;-77
2022/01/05 14:16:47;;;;;;;14.05;2.50;;;;;;;9.07;48.04;99417.56;6003371;23;97183;-77
2022/01/05 14:19:18;;;;;;;9.25;2.15;;;;;;;9.13;47.95;99404.94;6001597;23;99568;-77
2022/01/05 14:21:48;;;;;;;12.65;2.35;;;;;;;9.13;49.09;99418.13;6002644;23;99319;-78
2022/01/05 14:24:20;;;;;;;9.13;2.08;;;;;;;9.20;49.72;99414.25;6002212;23;96642;-78
2022/01/05 14:30:48;;;;;;;6.47;2.08;;;;;;;9.25;50.40;99421.94;5830989;23;99195;-76
2022/01/05 14:33:44;;;;;;;7.88;1.98;;;;;;;9.10;51.39;99420.94;6001809;23;98811;-77
2022/01/05 14:36:21;;;;;;;8.55;2.13;;;;;;;9.14;51.14;99418.97;6000664;23;96814;-77
2022/01/05 14:39:11;;;;;;;11.10;2.63;;;;;;;9.09;51.31;99411.31;6001765;23;97293;-77
2022/01/05 14:41:40;;;;;;;10.77;1.90;;;;;;;9.34;50.72;99421.44;5995617;23;98886;-77
2022/01/05 14:44:18;;;;;;;9.82;1.77;;;;;;;9.43;50.49;99402.53;6000914;23;99089;-77
2022/01/05 14:46:47;;;;;;;8.55;1.55;;;;;;;8.75;52.18;99412.13;6002639;23;96688;-77
2022/01/05 14:49:21;;;;;;;10.65;1.92;;;;;;;9.11;52.62;99401.56;6002208;23;97156;-77
2022/01/05 14:51:51;;;;;;;7.15;2.00;;;;;;;8.66;53.75;99407.31;6003871;23;98859;-79
2022/01/05 14:54:26;;;;;;;10.80;1.77;;;;;;;8.81;54.32;99413.59;6002644;23;99274;-77
2022/01/05 14:56:59;;;;;;;8.32;1.88;;;;;;;8.95;53.89;99410.28;6003691;23;96788;-78
2022/01/05 14:59:29;;;;;;;14.82;2.17;;;;;;;8.94;54.31;99403.31;6001506;23;96707;-76
2022/01/05 15:01:59;;;;;;;6.57;2.08;;;;;;;8.91;53.82;99417.50;6001815;23;99204;-77
2022/01/05 15:04:28;;;;;;;6.85;1.80;;;;;;;8.65;54.31;99420.56;6001427;23;97959;-77
2022/01/05 15:07:17;;;;;;;9.52;1.90;;;;;;;9.10;52.90;99410.38;6001862;23;96738;-79
2022/01/05 15:47:45;;;;;;;;;;;;;;;;;;;;;
2022/01/05 17:08:56;;;;;;;;;;;;;;;;;;;;;
2022/01/05 17:12:06;;;;;;;;;;;;;;;;;;;;;
2022/01/05 17:14:59;;;;;;;;;;;;;;;;;;;;;
2022/01/05 17:17:56;;;;;;;5.30;2.70;;;;;;;8.97;56.90;99475.16;5944967;23;116968;-79
2022/01/05 20:19:43;;;;;;;18.15;2.70;;;;;;;9.67;54.22;99716.91;6201476;22;97180;-79
2022/01/05 20:25:55;;;;;;;;;;;;;;;;;;;;;
2022/01/05 20:28:31;;;;;;;11.32;1.95;;;;;;;10.03;52.93;99726.63;6049830;23;128058;-79
2022/01/05 20:31:16;;;;;;;;;;;;;;;;;;;;;
2022/01/05 20:33:50;;;;;;;11.05;2.05;;;;;;;8.71;57.14;99723.13;6121150;22;114530;-77
2022/01/05 21:27:02;;;;;;;13.68;1.80;;;;;;;9.24;53.86;99799.81;6151686;22;97528;-79
2022/01/05 21:32:13;;;;;;;13.70;1.77;;;;;;;9.39;53.77;99814.91;6090417;22;99040;-80
2022/01/05 21:45:18;;;;;;;12.77;2.22;;;;;;;9.62;53.35;99832.34;6213535;22;96813;-78
2022/01/05 21:47:44;;;;;;;12.02;2.10;;;;;;;9.83;52.27;99836.63;6210489;22;96725;-75
2022/01/05 21:50:12;;;;;;;12.82;2.15;;;;;;;9.79;52.31;99827.13;6210283;22;97141;-74
2022/01/05 21:52:40;;;;;;;12.00;1.80;;;;;;;9.37;52.49;99837.00;6211284;22;99048;-75
2022/01/05 21:55:09;;;;;;;11.07;2.10;;;;;;;9.01;54.33;99829.78;6210055;22;99168;-75
2022/01/05 21:57:35;;;;;;;18.17;2.35;;;;;;;9.69;52.67;99840.81;6211244;22;96923;-75
2022/01/05 22:00:03;;;;;;;16.17;2.25;;;;;;;9.70;53.14;99838.13;6209414;22;97291;-74
2022/01/05 22:02:31;;;;;;;15.45;3.13;;;;;;;9.65;52.01;99841.91;6208139;22;99175;-75
2022/01/05 22:04:57;;;;;;;16.92;2.38;;;;;;;9.03;53.29;99849.03;6209589;22;98690;-75
2022/01/05 22:07:24;;;;;;;12.73;2.42;;;;;;;9.14;53.55;99859.09;6209857;22;97230;-75
2022/01/05 22:09:50;;;;;;;8.10;1.77;;;;;;;9.30;52.75;99860.16;6210472;22;97291;-74
2022/01/05 22:12:16;;;;;;;14.23;2.03;;;;;;;9.45;52.62;99856.00;6208423;22;99113;-74
2022/01/05 22:14:42;;;;;;;21.30;2.70;;;;;;;8.97;52.76;99875.66;6210260;22;99406;-74
2022/01/05 22:17:09;;;;;;;17.13;2.17;;;;;;;9.44;52.18;99878.00;6211115;22;96859;-75
2022/01/05 22:19:37;;;;;;;11.27;1.67;;;;;;;9.54;51.30;99877.50;6211949;22;96884;-73
2022/01/05 22:22:03;;;;;;;13.88;2.05;;;;;;;9.28;52.02;99885.72;6211206;22;99525;-74
2022/01/05 22:24:30;;;;;;;14.07;2.33;;;;;;;9.21;52.31;99889.53;6210555;22;97869;-76
2022/01/05 22:26:57;;;;;;;16.30;1.98;;;;;;;9.34;51.34;99895.13;6212156;22;96734;-76
2022/01/05 22:29:24;;;;;;;8.88;1.63;;;;;;;9.31;51.65;99896.16;6211056;22;96769;-74
2022/01/05 22:31:50;;;;;;;11.57;2.00;;;;;;;9.61;51.19;99912.38;6211757;22;99137;-74
2022/01/05 22:34:17;;;;;;;13.02;2.10;;;;;;;9.26;51.05;99910.44;6211498;22;99097;-74
2022/01/05 22:36:45;;;;;;;14.35;1.58;;;;;;;8.91;50.93;99912.81;6211827;22;96716;-76
2022/01/05 22:39:12;;;;;;;16.38;2.33;;;;;;;9.25;51.95;99928.06;6213204;22;97236;-74
2022/01/05 22:41:38;;;;;;;17.15;1.67;;;;;;;8.63;52.33;99928.88;6212459;22;99435;-74
2022/01/05 22:44:05;;;;;;;18.25;2.15;;;;;;;9.20;51.60;99930.00;6213629;22;98750;-73
2022/01/05 22:46:31;;;;;;;12.95;2.22;;;;;;;9.38;51.23;99929.25;6213072;22;96987;-74
2022/01/05 22:48:58;;;;;;;18.92;4.50;;;;;;;9.41;51.29;99925.59;6212021;22;96889;-74
2022/01/05 22:51:24;;;;;;;12.30;1.70;;;;;;;9.54;51.02;99934.69;6212303;22;99478;-74
2022/01/05 22:53:52;;;;;;;18.85;2.25;;;;;;;9.54;51.04;99942.59;6211559;22;99104;-76
2022/01/05 22:56:18;;;;;;;8.90;2.10;;;;;;;9.99;50.14;99944.94;6213738;22;96644;-75
2022/01/05 22:58:44;;;;;;;16.55;1.98;;;;;;;10.07;49.74;99944.59;6214673;22;96826;-75
2022/01/05 23:01:10;;;;;;;16.48;2.45;;;;;;;10.06;49.68;99950.81;6214335;22;99087;-75
2022/01/05 23:03:38;;;;;;;15.18;2.05;;;;;;;10.14;49.92;99951.31;6212529;22;101714;-75
2022/01/05 23:06:04;;;;;;;17.90;2.03;;;;;;;9.90;50.43;99946.25;6213877;22;97279;-75
2022/01/05 23:08:31;;;;;;;13.82;1.80;;;;;;;9.88;49.45;99958.66;6213223;22;96713;-73
2022/01/05 23:10:59;;;;;;;19.95;2.28;;;;;;;9.51;50.73;99966.47;6212454;22;97646;-75
2022/01/05 23:13:25;;;;;;;12.10;1.73;;;;;;;8.50;53.43;99963.66;6214341;22;99568;-75
2022/01/05 23:15:52;;;;;;;15.68;2.28;;;;;;;9.00;52.98;99959.84;6215027;22;96825;-73
2022/01/05 23:18:20;;;;;;;15.45;2.25;;;;;;;9.22;52.31;99964.22;6215352;22;96715;-75
2022/01/05 23:20:46;;;;;;;17.52;2.20;;;;;;;8.89;51.61;99955.94;6214148;22;98133;-75
2022/01/05 23:23:13;;;;;;;12.65;2.30;;;;;;;8.96;52.58;99963.53;6215082;22;99156;-76
2022/01/05 23:25:39;;;;;;;17.08;2.30;;;;;;;8.19;54.05;99970.09;6213838;22;96646;-75
2022/01/05 23:28:07;;;;;;;12.77;1.83;;;;;;;8.56;53.58;99974.81;6217159;22;96721;-75
2022/01/05 23:30:33;;;;;;;11.73;1.88;;;;;;;8.88;53.56;99967.38;6215309;22;99022;-75
2022/01/05 23:33:00;;;;;;;13.73;2.20;;;;;;;9.11;52.52;99978.72;6216896;22;99236;-75
2022/01/05 23:35:27;;;;;;;12.82;1.83;;;;;;;8.20;54.50;99976.22;6214239;22;96676;-75
2022/01/05 23:37:53;;;;;;;16.90;2.17;;;;;;;8.56;53.79;99985.34;6217535;22;96729;-76
2022/01/05 23:40:20;;;;;;;16.52;1.73;;;;;;;8.89;53.49;99988.41;6230805;22;99118;-76
2022/01/05 23:42:53;;;;;;;13.93;1.90;;;;;;;8.70;53.17;99990.06;6241157;22;97717;-76
2022/01/05 23:45:22;;;;;;;10.00;1.77;;;;;;;9.10;52.53;99997.22;6230598;22;97018;-74
2022/01/05 23:47:53;;;;;;;15.73;2.05;;;;;;;8.81;52.59;99990.50;6226203;22;96531;-76
2022/01/05 23:50:20;;;;;;;9.68;1.42;;;;;;;7.93;55.07;100004.41;6233277;22;97961;-74
2022/01/05 23:52:46;;;;;;;10.95;1.23;;;;;;;8.10;56.20;100004.63;6222443;22;98096;-76
2022/01/05 23:55:13;;;;;;;10.80;1.70;;;;;;;8.39;55.17;100009.72;6220160;22;96687;-75
2022/01/05 23:57:39;;;;;;;12.80;1.67;;;;;;;8.57;54.65;100015.16;6217902;22;97158;-76
